sensor_id;sensor_type;location;lat;lon;timestamp;temperature;humidity
65036;DHT22;51603;49.300;8.880;2022-10-14T00:01:46;13.30;99.90
65036;DHT22;51603;49.300;8.880;2022-10-14T00:04:13;13.20;99.90
65036;DHT22;51603;49.300;8.880;2022-10-14T00:06:38;13.20;99.90
65036;DHT22;51603;49.300;8.880;2022-10-14T00:09:06;13.20;99.90
65036;DHT22;51603;49.300;8.880;2022-10-14T00:11:34;13.20;99.90
65036;DHT22;51603;49.300;8.880;2022-10-14T00:14:09;13.20;99.90
65036;DHT22;51603;49.300;8.880;2022-10-14T00:16:36;13.10;99.90
65036;DHT22;51603;49.300;8.880;2022-10-14T00:19:03;13.10;99.90
65036;DHT22;51603;49.300;8.880;2022-10-14T00:21:29;13.10;99.90
65036;DHT22;51603;49.300;8.880;2022-10-14T00:23:55;13.10;99.90
65036;DHT22;51603;49.300;8.880;2022-10-14T00:26:23;13.10;99.90
65036;DHT22;51603;49.300;8.880;2022-10-14T00:28:49;13.10;99.90
65036;DHT22;51603;49.300;8.880;2022-10-14T00:31:16;13.10;99.90
65036;DHT22;51603;49.300;8.880;2022-10-14T00:33:42;13.20;99.90
65036;DHT22;51603;49.300;8.880;2022-10-14T00:36:09;13.20;99.90
65036;DHT22;51603;49.300;8.880;2022-10-14T00:38:35;13.20;99.90
65036;DHT22;51603;49.300;8.880;2022-10-14T00:41:02;13.20;99.90
65036;DHT22;51603;49.300;8.880;2022-10-14T00:43:29;13.20;99.90
65036;DHT22;51603;49.300;8.880;2022-10-14T00:45:55;13.10;99.90
65036;DHT22;51603;49.300;8.880;2022-10-14T00:48:23;13.10;99.90
65036;DHT22;51603;49.300;8.880;2022-10-14T00:50:52;13.10;99.90
65036;DHT22;51603;49.300;8.880;2022-10-14T00:53:18;13.10;99.90
65036;DHT22;51603;49.300;8.880;2022-10-14T00:55:45;13.00;99.90
65036;DHT22;51603;49.300;8.880;2022-10-14T00:58:10;13.00;99.90
65036;DHT22;51603;49.300;8.880;2022-10-14T01:03:48;13.00;99.90
65036;DHT22;51603;49.300;8.880;2022-10-14T01:17:38;12.90;99.90
65036;DHT22;51603;49.300;8.880;2022-10-14T01:23:24;12.90;99.90
65036;DHT22;51603;49.300;8.880;2022-10-14T01:26:26;12.90;99.90
65036;DHT22;51603;49.300;8.880;2022-10-14T01:31:51;12.90;99.90
65036;DHT22;51603;49.300;8.880;2022-10-14T01:34:24;12.80;99.90
65036;DHT22;51603;49.300;8.880;2022-10-14T01:36:57;12.80;99.90
65036;DHT22;51603;49.300;8.880;2022-10-14T01:39:26;12.80;99.90
65036;DHT22;51603;49.300;8.880;2022-10-14T01:42:07;12.80;99.90
65036;DHT22;51603;49.300;8.880;2022-10-14T01:44:34;12.80;99.90
65036;DHT22;51603;49.300;8.880;2022-10-14T01:47:03;12.80;99.90
65036;DHT22;51603;49.300;8.880;2022-10-14T01:49:35;12.80;99.90
65036;DHT22;51603;49.300;8.880;2022-10-14T01:52:09;12.80;99.90
65036;DHT22;51603;49.300;8.880;2022-10-14T01:54:39;12.80;99.90
65036;DHT22;51603;49.300;8.880;2022-10-14T01:57:08;12.70;99.90
65036;DHT22;51603;49.300;8.880;2022-10-14T01:59:37;12.70;99.90
65036;DHT22;51603;49.300;8.880;2022-10-14T02:02:03;12.70;99.90
65036;DHT22;51603;49.300;8.880;2022-10-14T02:04:28;12.70;99.90
65036;DHT22;51603;49.300;8.880;2022-10-14T02:07:20;12.70;99.90
65036;DHT22;51603;49.300;8.880;2022-10-14T02:09:54;12.70;99.90
65036;DHT22;51603;49.300;8.880;2022-10-14T02:12:25;12.70;99.90
65036;DHT22;51603;49.300;8.880;2022-10-14T02:17:52;12.70;99.90
65036;DHT22;51603;49.300;8.880;2022-10-14T02:20:30;12.80;99.90
65036;DHT22;51603;49.300;8.880;2022-10-14T02:23:11;12.80;99.90
65036;DHT22;51603;49.300;8.880;2022-10-14T02:25:39;12.80;99.90
65036;DHT22;51603;49.300;8.880;2022-10-14T02:28:07;12.80;99.90
65036;DHT22;51603;49.300;8.880;2022-10-14T02:30:39;12.90;99.90
65036;DHT22;51603;49.300;8.880;2022-10-14T02:33:07;12.90;99.90
65036;DHT22;51603;49.300;8.880;2022-10-14T02:35:33;12.90;99.90
65036;DHT22;51603;49.300;8.880;2022-10-14T02:38:01;12.80;99.90
65036;DHT22;51603;49.300;8.880;2022-10-14T02:40:34;12.80;99.90
65036;DHT22;51603;49.300;8.880;2022-10-14T02:43:01;12.80;99.90
65036;DHT22;51603;49.300;8.880;2022-10-14T02:45:26;12.80;99.90
65036;DHT22;51603;49.300;8.880;2022-10-14T02:47:52;12.80;99.90
65036;DHT22;51603;49.300;8.880;2022-10-14T02:50:19;12.80;99.90
65036;DHT22;51603;49.300;8.880;2022-10-14T02:52:45;12.70;99.90
65036;DHT22;51603;49.300;8.880;2022-10-14T02:55:10;12.70;99.90
65036;DHT22;51603;49.300;8.880;2022-10-14T02:57:36;12.60;99.90
65036;DHT22;51603;49.300;8.880;2022-10-14T03:00:03;12.60;99.90
65036;DHT22;51603;49.300;8.880;2022-10-14T03:02:29;12.60;99.90
65036;DHT22;51603;49.300;8.880;2022-10-14T03:04:55;12.60;99.90
65036;DHT22;51603;49.300;8.880;2022-10-14T03:07:22;12.50;99.90
65036;DHT22;51603;49.300;8.880;2022-10-14T03:09:48;12.50;99.90
65036;DHT22;51603;49.300;8.880;2022-10-14T03:12:13;12.50;99.90
65036;DHT22;51603;49.300;8.880;2022-10-14T03:14:38;12.50;99.90
65036;DHT22;51603;49.300;8.880;2022-10-14T03:17:04;12.50;99.90
65036;DHT22;51603;49.300;8.880;2022-10-14T03:19:29;12.50;99.90
65036;DHT22;51603;49.300;8.880;2022-10-14T03:21:55;12.50;99.90
65036;DHT22;51603;49.300;8.880;2022-10-14T03:24:21;12.50;99.90
65036;DHT22;51603;49.300;8.880;2022-10-14T03:26:46;12.50;99.90
65036;DHT22;51603;49.300;8.880;2022-10-14T03:29:12;12.50;99.90
65036;DHT22;51603;49.300;8.880;2022-10-14T03:31:37;12.50;99.90
65036;DHT22;51603;49.300;8.880;2022-10-14T03:34:03;12.60;99.90
65036;DHT22;51603;49.300;8.880;2022-10-14T03:36:29;12.60;99.90
65036;DHT22;51603;49.300;8.880;2022-10-14T03:38:54;12.60;99.90
65036;DHT22;51603;49.300;8.880;2022-10-14T03:41:20;12.60;99.90
65036;DHT22;51603;49.300;8.880;2022-10-14T03:43:45;12.60;99.90
65036;DHT22;51603;49.300;8.880;2022-10-14T03:46:11;12.60;99.90
65036;DHT22;51603;49.300;8.880;2022-10-14T03:48:36;12.60;99.90
65036;DHT22;51603;49.300;8.880;2022-10-14T03:51:02;12.60;99.90
65036;DHT22;51603;49.300;8.880;2022-10-14T03:53:27;12.60;99.90
65036;DHT22;51603;49.300;8.880;2022-10-14T03:55:53;12.60;99.90
65036;DHT22;51603;49.300;8.880;2022-10-14T03:58:18;12.60;99.90
65036;DHT22;51603;49.300;8.880;2022-10-14T04:00:44;12.60;99.90
65036;DHT22;51603;49.300;8.880;2022-10-14T04:03:09;12.50;99.90
65036;DHT22;51603;49.300;8.880;2022-10-14T04:05:35;12.50;99.90
65036;DHT22;51603;49.300;8.880;2022-10-14T04:08:01;12.50;99.90
65036;DHT22;51603;49.300;8.880;2022-10-14T04:10:27;12.50;99.90
65036;DHT22;51603;49.300;8.880;2022-10-14T04:12:53;12.50;99.90
65036;DHT22;51603;49.300;8.880;2022-10-14T04:15:19;12.50;99.90
65036;DHT22;51603;49.300;8.880;2022-10-14T04:17:45;12.50;99.90
65036;DHT22;51603;49.300;8.880;2022-10-14T04:20:11;12.50;99.90
65036;DHT22;51603;49.300;8.880;2022-10-14T04:22:36;12.40;99.90
65036;DHT22;51603;49.300;8.880;2022-10-14T04:25:02;12.40;99.90
65036;DHT22;51603;49.300;8.880;2022-10-14T04:27:28;12.40;99.90
65036;DHT22;51603;49.300;8.880;2022-10-14T04:29:53;12.40;99.90
65036;DHT22;51603;49.300;8.880;2022-10-14T04:32:19;12.40;99.90
65036;DHT22;51603;49.300;8.880;2022-10-14T04:34:44;12.40;99.90
65036;DHT22;51603;49.300;8.880;2022-10-14T04:37:10;12.40;99.90
65036;DHT22;51603;49.300;8.880;2022-10-14T04:39:36;12.40;99.90
65036;DHT22;51603;49.300;8.880;2022-10-14T04:42:01;12.40;99.90
65036;DHT22;51603;49.300;8.880;2022-10-14T04:44:27;12.40;99.90
65036;DHT22;51603;49.300;8.880;2022-10-14T04:46:53;12.40;99.90
65036;DHT22;51603;49.300;8.880;2022-10-14T04:49:18;12.40;99.90
65036;DHT22;51603;49.300;8.880;2022-10-14T04:51:44;12.40;99.90
65036;DHT22;51603;49.300;8.880;2022-10-14T04:54:10;12.30;99.90
65036;DHT22;51603;49.300;8.880;2022-10-14T04:56:36;12.30;99.90
65036;DHT22;51603;49.300;8.880;2022-10-14T04:59:02;12.30;99.90
65036;DHT22;51603;49.300;8.880;2022-10-14T05:01:27;12.30;99.90
65036;DHT22;51603;49.300;8.880;2022-10-14T05:03:53;12.30;99.90
65036;DHT22;51603;49.300;8.880;2022-10-14T05:06:19;12.30;99.90
65036;DHT22;51603;49.300;8.880;2022-10-14T05:08:44;12.20;99.90
65036;DHT22;51603;49.300;8.880;2022-10-14T05:11:10;12.20;99.90
65036;DHT22;51603;49.300;8.880;2022-10-14T05:13:36;12.20;99.90
65036;DHT22;51603;49.300;8.880;2022-10-14T05:16:01;12.20;99.90
65036;DHT22;51603;49.300;8.880;2022-10-14T05:18:27;12.10;99.90
65036;DHT22;51603;49.300;8.880;2022-10-14T05:20:53;12.10;99.90
65036;DHT22;51603;49.300;8.880;2022-10-14T05:23:18;12.10;99.90
65036;DHT22;51603;49.300;8.880;2022-10-14T05:25:44;12.10;99.90
65036;DHT22;51603;49.300;8.880;2022-10-14T05:28:09;12.10;99.90
65036;DHT22;51603;49.300;8.880;2022-10-14T05:30:35;12.10;99.90
65036;DHT22;51603;49.300;8.880;2022-10-14T05:33:01;12.10;99.90
65036;DHT22;51603;49.300;8.880;2022-10-14T05:35:26;12.10;99.90
65036;DHT22;51603;49.300;8.880;2022-10-14T05:37:55;12.10;99.90
65036;DHT22;51603;49.300;8.880;2022-10-14T05:40:21;12.10;99.90
65036;DHT22;51603;49.300;8.880;2022-10-14T05:42:47;12.20;99.90
65036;DHT22;51603;49.300;8.880;2022-10-14T05:45:12;12.20;99.90
65036;DHT22;51603;49.300;8.880;2022-10-14T05:47:38;12.20;99.90
65036;DHT22;51603;49.300;8.880;2022-10-14T05:50:04;12.20;99.90
65036;DHT22;51603;49.300;8.880;2022-10-14T05:52:30;12.20;99.90
65036;DHT22;51603;49.300;8.880;2022-10-14T05:54:57;12.20;99.90
65036;DHT22;51603;49.300;8.880;2022-10-14T05:57:22;12.20;99.90
65036;DHT22;51603;49.300;8.880;2022-10-14T05:59:48;12.20;99.90
65036;DHT22;51603;49.300;8.880;2022-10-14T06:02:13;12.30;99.90
65036;DHT22;51603;49.300;8.880;2022-10-14T06:04:39;12.20;99.90
65036;DHT22;51603;49.300;8.880;2022-10-14T06:07:06;12.30;99.90
65036;DHT22;51603;49.300;8.880;2022-10-14T06:09:34;12.30;99.90
65036;DHT22;51603;49.300;8.880;2022-10-14T06:12:00;12.30;99.90
65036;DHT22;51603;49.300;8.880;2022-10-14T06:14:26;12.30;99.90
65036;DHT22;51603;49.300;8.880;2022-10-14T06:16:51;12.30;99.90
65036;DHT22;51603;49.300;8.880;2022-10-14T06:19:17;12.30;99.90
65036;DHT22;51603;49.300;8.880;2022-10-14T06:21:42;12.30;99.90
65036;DHT22;51603;49.300;8.880;2022-10-14T06:24:09;12.30;99.90
65036;DHT22;51603;49.300;8.880;2022-10-14T06:26:34;12.40;99.90
65036;DHT22;51603;49.300;8.880;2022-10-14T06:29:00;12.40;99.90
65036;DHT22;51603;49.300;8.880;2022-10-14T06:31:25;12.40;99.90
65036;DHT22;51603;49.300;8.880;2022-10-14T06:33:51;12.40;99.90
65036;DHT22;51603;49.300;8.880;2022-10-14T06:36:16;12.40;99.90
65036;DHT22;51603;49.300;8.880;2022-10-14T06:38:42;12.40;99.90
65036;DHT22;51603;49.300;8.880;2022-10-14T06:41:08;12.40;99.90
65036;DHT22;51603;49.300;8.880;2022-10-14T06:43:33;12.50;99.90
65036;DHT22;51603;49.300;8.880;2022-10-14T06:46:00;12.50;99.90
65036;DHT22;51603;49.300;8.880;2022-10-14T06:48:26;12.50;99.90
65036;DHT22;51603;49.300;8.880;2022-10-14T06:50:52;12.50;99.90
65036;DHT22;51603;49.300;8.880;2022-10-14T06:53:17;12.50;99.90
65036;DHT22;51603;49.300;8.880;2022-10-14T06:55:43;12.50;99.90
65036;DHT22;51603;49.300;8.880;2022-10-14T06:58:09;12.60;99.90
65036;DHT22;51603;49.300;8.880;2022-10-14T07:00:34;12.60;99.90
65036;DHT22;51603;49.300;8.880;2022-10-14T07:03:01;12.70;99.90
65036;DHT22;51603;49.300;8.880;2022-10-14T07:05:27;12.70;99.90
65036;DHT22;51603;49.300;8.880;2022-10-14T07:07:52;12.70;99.90
65036;DHT22;51603;49.300;8.880;2022-10-14T07:10:18;12.70;99.90
65036;DHT22;51603;49.300;8.880;2022-10-14T07:12:44;12.70;99.90
65036;DHT22;51603;49.300;8.880;2022-10-14T07:15:09;12.70;99.90
65036;DHT22;51603;49.300;8.880;2022-10-14T07:17:35;12.70;99.90
65036;DHT22;51603;49.300;8.880;2022-10-14T07:20:00;12.80;99.90
65036;DHT22;51603;49.300;8.880;2022-10-14T07:22:26;12.80;99.90
65036;DHT22;51603;49.300;8.880;2022-10-14T07:24:51;12.80;99.90
65036;DHT22;51603;49.300;8.880;2022-10-14T07:27:17;12.90;99.90
65036;DHT22;51603;49.300;8.880;2022-10-14T07:29:44;12.90;99.90
65036;DHT22;51603;49.300;8.880;2022-10-14T07:32:10;13.00;99.90
65036;DHT22;51603;49.300;8.880;2022-10-14T07:34:36;13.00;99.90
65036;DHT22;51603;49.300;8.880;2022-10-14T07:37:01;13.10;99.90
65036;DHT22;51603;49.300;8.880;2022-10-14T07:39:27;13.20;99.90
65036;DHT22;51603;49.300;8.880;2022-10-14T07:41:53;13.20;99.90
65036;DHT22;51603;49.300;8.880;2022-10-14T07:44:19;13.30;99.90
65036;DHT22;51603;49.300;8.880;2022-10-14T07:46:45;13.40;99.90
65036;DHT22;51603;49.300;8.880;2022-10-14T07:49:14;13.50;99.90
65036;DHT22;51603;49.300;8.880;2022-10-14T07:51:40;13.50;99.90
65036;DHT22;51603;49.300;8.880;2022-10-14T07:54:08;13.50;99.90
65036;DHT22;51603;49.300;8.880;2022-10-14T07:56:38;13.60;99.90
65036;DHT22;51603;49.300;8.880;2022-10-14T07:59:04;13.60;99.90
65036;DHT22;51603;49.300;8.880;2022-10-14T08:01:30;13.70;99.90
65036;DHT22;51603;49.300;8.880;2022-10-14T08:03:55;13.70;99.90
65036;DHT22;51603;49.300;8.880;2022-10-14T08:06:21;13.70;99.90
65036;DHT22;51603;49.300;8.880;2022-10-14T08:08:47;13.80;99.90
65036;DHT22;51603;49.300;8.880;2022-10-14T08:11:20;13.80;99.90
65036;DHT22;51603;49.300;8.880;2022-10-14T08:13:46;13.80;99.90
65036;DHT22;51603;49.300;8.880;2022-10-14T08:16:16;13.90;99.90
65036;DHT22;51603;49.300;8.880;2022-10-14T08:18:43;13.90;99.90
65036;DHT22;51603;49.300;8.880;2022-10-14T08:21:08;13.90;99.90
65036;DHT22;51603;49.300;8.880;2022-10-14T08:23:34;14.00;99.90
65036;DHT22;51603;49.300;8.880;2022-10-14T08:25:59;14.00;99.90
65036;DHT22;51603;49.300;8.880;2022-10-14T08:28:25;14.10;99.90
65036;DHT22;51603;49.300;8.880;2022-10-14T08:30:50;14.10;99.90
65036;DHT22;51603;49.300;8.880;2022-10-14T08:33:17;14.10;99.90
65036;DHT22;51603;49.300;8.880;2022-10-14T08:35:43;14.20;99.90
65036;DHT22;51603;49.300;8.880;2022-10-14T08:38:09;14.20;99.90
65036;DHT22;51603;49.300;8.880;2022-10-14T08:46:35;14.20;99.90
65036;DHT22;51603;49.300;8.880;2022-10-14T08:49:10;14.30;99.90
65036;DHT22;51603;49.300;8.880;2022-10-14T08:51:37;14.20;99.90
65036;DHT22;51603;49.300;8.880;2022-10-14T08:54:08;14.30;99.90
65036;DHT22;51603;49.300;8.880;2022-10-14T08:56:35;14.40;99.90
65036;DHT22;51603;49.300;8.880;2022-10-14T08:59:08;14.40;99.90
65036;DHT22;51603;49.300;8.880;2022-10-14T09:01:43;14.50;99.90
65036;DHT22;51603;49.300;8.880;2022-10-14T09:04:13;14.50;99.90
65036;DHT22;51603;49.300;8.880;2022-10-14T09:06:44;14.50;99.90
65036;DHT22;51603;49.300;8.880;2022-10-14T09:09:36;14.50;99.90
65036;DHT22;51603;49.300;8.880;2022-10-14T09:12:06;14.50;99.90
65036;DHT22;51603;49.300;8.880;2022-10-14T09:14:36;14.60;99.90
65036;DHT22;51603;49.300;8.880;2022-10-14T09:17:18;14.60;99.90
65036;DHT22;51603;49.300;8.880;2022-10-14T09:19:47;14.60;99.90
65036;DHT22;51603;49.300;8.880;2022-10-14T09:22:14;14.70;99.90
65036;DHT22;51603;49.300;8.880;2022-10-14T09:24:40;14.70;99.90
65036;DHT22;51603;49.300;8.880;2022-10-14T09:27:16;14.70;99.90
65036;DHT22;51603;49.300;8.880;2022-10-14T09:29:48;14.80;99.90
65036;DHT22;51603;49.300;8.880;2022-10-14T09:32:29;14.80;99.90
65036;DHT22;51603;49.300;8.880;2022-10-14T09:34:56;14.80;99.90
65036;DHT22;51603;49.300;8.880;2022-10-14T09:39:53;14.90;99.90
65036;DHT22;51603;49.300;8.880;2022-10-14T09:42:26;14.90;99.90
65036;DHT22;51603;49.300;8.880;2022-10-14T09:45:11;15.00;99.90
65036;DHT22;51603;49.300;8.880;2022-10-14T09:47:58;15.00;99.90
65036;DHT22;51603;49.300;8.880;2022-10-14T09:50:40;15.00;99.90
65036;DHT22;51603;49.300;8.880;2022-10-14T09:53:19;15.10;99.90
65036;DHT22;51603;49.300;8.880;2022-10-14T09:55:51;15.20;99.90
65036;DHT22;51603;49.300;8.880;2022-10-14T09:58:28;15.20;99.90
65036;DHT22;51603;49.300;8.880;2022-10-14T10:00:56;15.20;99.90
65036;DHT22;51603;49.300;8.880;2022-10-14T10:03:40;15.30;99.90
65036;DHT22;51603;49.300;8.880;2022-10-14T10:06:09;15.40;99.90
65036;DHT22;51603;49.300;8.880;2022-10-14T10:11:49;15.50;99.90
65036;DHT22;51603;49.300;8.880;2022-10-14T10:14:31;15.60;99.90
65036;DHT22;51603;49.300;8.880;2022-10-14T10:19:37;15.70;99.90
65036;DHT22;51603;49.300;8.880;2022-10-14T10:24:47;15.90;99.90
65036;DHT22;51603;49.300;8.880;2022-10-14T10:27:26;16.00;99.90
65036;DHT22;51603;49.300;8.880;2022-10-14T10:29:52;16.00;99.90
65036;DHT22;51603;49.300;8.880;2022-10-14T10:35:32;16.20;99.90
65036;DHT22;51603;49.300;8.880;2022-10-14T10:49:02;16.50;99.90
65036;DHT22;51603;49.300;8.880;2022-10-14T10:54:42;16.60;99.90
65036;DHT22;51603;49.300;8.880;2022-10-14T11:00:16;16.40;99.90
65036;DHT22;51603;49.300;8.880;2022-10-14T11:03:05;16.30;99.90
65036;DHT22;51603;49.300;8.880;2022-10-14T11:05:39;16.20;99.90
65036;DHT22;51603;49.300;8.880;2022-10-14T11:08:32;16.20;99.90
65036;DHT22;51603;49.300;8.880;2022-10-14T11:11:28;16.10;99.90
65036;DHT22;51603;49.300;8.880;2022-10-14T11:17:42;15.80;99.90
65036;DHT22;51603;49.300;8.880;2022-10-14T11:23:06;15.70;99.90
65036;DHT22;51603;49.300;8.880;2022-10-14T11:36:18;15.70;99.90
65036;DHT22;51603;49.300;8.880;2022-10-14T11:39:30;15.60;99.90
65036;DHT22;51603;49.300;8.880;2022-10-14T11:42:12;15.60;99.90
65036;DHT22;51603;49.300;8.880;2022-10-14T11:44:42;15.50;99.90
65036;DHT22;51603;49.300;8.880;2022-10-14T11:47:14;15.50;99.90
65036;DHT22;51603;49.300;8.880;2022-10-14T11:55:22;15.30;99.90
65036;DHT22;51603;49.300;8.880;2022-10-14T11:58:00;15.30;99.90
65036;DHT22;51603;49.300;8.880;2022-10-14T12:00:30;15.30;99.90
65036;DHT22;51603;49.300;8.880;2022-10-14T12:03:02;15.30;99.90
65036;DHT22;51603;49.300;8.880;2022-10-14T12:08:22;15.30;99.90
65036;DHT22;51603;49.300;8.880;2022-10-14T12:10:58;15.30;99.90
65036;DHT22;51603;49.300;8.880;2022-10-14T12:13:39;15.20;99.90
65036;DHT22;51603;49.300;8.880;2022-10-14T12:16:12;15.30;99.90
65036;DHT22;51603;49.300;8.880;2022-10-14T12:18:38;15.30;99.90
65036;DHT22;51603;49.300;8.880;2022-10-14T12:21:16;15.30;99.90
65036;DHT22;51603;49.300;8.880;2022-10-14T12:23:47;15.30;99.90
65036;DHT22;51603;49.300;8.880;2022-10-14T12:28:48;15.40;99.90
65036;DHT22;51603;49.300;8.880;2022-10-14T12:31:35;15.40;99.90
65036;DHT22;51603;49.300;8.880;2022-10-14T12:36:36;15.50;99.90
65036;DHT22;51603;49.300;8.880;2022-10-14T12:41:59;15.50;99.90
65036;DHT22;51603;49.300;8.880;2022-10-14T12:44:43;15.50;99.90
65036;DHT22;51603;49.300;8.880;2022-10-14T12:47:21;15.50;99.90
65036;DHT22;51603;49.300;8.880;2022-10-14T12:49:52;15.60;99.90
65036;DHT22;51603;49.300;8.880;2022-10-14T12:52:26;15.60;99.90
65036;DHT22;51603;49.300;8.880;2022-10-14T12:54:53;15.70;99.90
65036;DHT22;51603;49.300;8.880;2022-10-14T12:57:28;15.70;99.90
65036;DHT22;51603;49.300;8.880;2022-10-14T12:59:57;15.70;99.90
65036;DHT22;51603;49.300;8.880;2022-10-14T13:05:00;15.80;99.90
65036;DHT22;51603;49.300;8.880;2022-10-14T13:07:31;15.70;99.90
65036;DHT22;51603;49.300;8.880;2022-10-14T13:16:10;15.80;99.90
65036;DHT22;51603;49.300;8.880;2022-10-14T13:18:54;15.80;99.90
65036;DHT22;51603;49.300;8.880;2022-10-14T13:21:26;15.90;99.90
65036;DHT22;51603;49.300;8.880;2022-10-14T13:23:54;16.00;99.90
65036;DHT22;51603;49.300;8.880;2022-10-14T13:27:01;16.00;99.90
65036;DHT22;51603;49.300;8.880;2022-10-14T13:32:23;16.00;99.90
65036;DHT22;51603;49.300;8.880;2022-10-14T13:37:41;16.10;99.90
65036;DHT22;51603;49.300;8.880;2022-10-14T13:40:26;16.10;99.90
65036;DHT22;51603;49.300;8.880;2022-10-14T13:42:57;16.10;99.90
65036;DHT22;51603;49.300;8.880;2022-10-14T13:47:54;16.00;99.90
65036;DHT22;51603;49.300;8.880;2022-10-14T13:50:22;16.00;99.90
65036;DHT22;51603;49.300;8.880;2022-10-14T13:53:00;16.00;99.90
65036;DHT22;51603;49.300;8.880;2022-10-14T13:55:27;16.00;99.90
65036;DHT22;51603;49.300;8.880;2022-10-14T13:58:12;16.00;99.90
65036;DHT22;51603;49.300;8.880;2022-10-14T14:03:33;16.00;99.90
65036;DHT22;51603;49.300;8.880;2022-10-14T14:06:00;16.10;99.90
65036;DHT22;51603;49.300;8.880;2022-10-14T14:08:30;16.10;99.90
65036;DHT22;51603;49.300;8.880;2022-10-14T14:11:01;16.10;99.90
65036;DHT22;51603;49.300;8.880;2022-10-14T14:13:32;16.10;99.90
65036;DHT22;51603;49.300;8.880;2022-10-14T14:16:00;16.20;99.90
65036;DHT22;51603;49.300;8.880;2022-10-14T14:18:36;16.20;99.90
65036;DHT22;51603;49.300;8.880;2022-10-14T14:21:05;16.20;99.90
65036;DHT22;51603;49.300;8.880;2022-10-14T14:23:36;16.20;99.90
65036;DHT22;51603;49.300;8.880;2022-10-14T14:26:01;16.20;99.90
65036;DHT22;51603;49.300;8.880;2022-10-14T14:28:29;16.20;99.90
65036;DHT22;51603;49.300;8.880;2022-10-14T14:30:56;16.20;99.90
65036;DHT22;51603;49.300;8.880;2022-10-14T14:33:28;16.20;99.90
65036;DHT22;51603;49.300;8.880;2022-10-14T14:35:59;16.20;99.90
65036;DHT22;51603;49.300;8.880;2022-10-14T14:38:31;16.10;99.90
65036;DHT22;51603;49.300;8.880;2022-10-14T14:41:20;16.00;99.90
65036;DHT22;51603;49.300;8.880;2022-10-14T14:43:52;16.00;99.90
65036;DHT22;51603;49.300;8.880;2022-10-14T14:46:30;15.90;99.90
65036;DHT22;51603;49.300;8.880;2022-10-14T14:48:58;15.90;99.90
65036;DHT22;51603;49.300;8.880;2022-10-14T14:51:27;15.80;99.90
65036;DHT22;51603;49.300;8.880;2022-10-14T14:53:55;15.80;99.90
65036;DHT22;51603;49.300;8.880;2022-10-14T14:56:28;15.80;99.90
65036;DHT22;51603;49.300;8.880;2022-10-14T14:59:05;15.70;99.90
65036;DHT22;51603;49.300;8.880;2022-10-14T15:01:32;15.70;99.90
65036;DHT22;51603;49.300;8.880;2022-10-14T15:04:06;15.60;99.90
65036;DHT22;51603;49.300;8.880;2022-10-14T15:06:33;15.60;99.90
65036;DHT22;51603;49.300;8.880;2022-10-14T15:09:08;15.60;99.90
65036;DHT22;51603;49.300;8.880;2022-10-14T15:11:35;15.50;99.90
65036;DHT22;51603;49.300;8.880;2022-10-14T15:14:41;15.50;99.90
65036;DHT22;51603;49.300;8.880;2022-10-14T15:19:58;15.40;99.90
65036;DHT22;51603;49.300;8.880;2022-10-14T15:25:10;15.30;99.90
65036;DHT22;51603;49.300;8.880;2022-10-14T15:30:24;15.30;99.90
65036;DHT22;51603;49.300;8.880;2022-10-14T15:32:59;15.20;99.90
65036;DHT22;51603;49.300;8.880;2022-10-14T15:35:26;15.20;99.90
65036;DHT22;51603;49.300;8.880;2022-10-14T15:37:52;15.20;99.90
65036;DHT22;51603;49.300;8.880;2022-10-14T15:40:25;15.30;99.90
65036;DHT22;51603;49.300;8.880;2022-10-14T15:42:51;15.20;99.90
65036;DHT22;51603;49.300;8.880;2022-10-14T15:45:17;15.20;99.90
65036;DHT22;51603;49.300;8.880;2022-10-14T15:47:43;15.30;99.90
65036;DHT22;51603;49.300;8.880;2022-10-14T15:50:18;15.20;99.90
65036;DHT22;51603;49.300;8.880;2022-10-14T15:52:44;15.20;99.90
65036;DHT22;51603;49.300;8.880;2022-10-14T15:55:24;15.20;99.90
65036;DHT22;51603;49.300;8.880;2022-10-14T15:57:50;15.20;99.90
65036;DHT22;51603;49.300;8.880;2022-10-14T16:00:18;15.20;99.90
65036;DHT22;51603;49.300;8.880;2022-10-14T16:02:46;15.20;99.90
65036;DHT22;51603;49.300;8.880;2022-10-14T16:05:13;15.20;99.90
65036;DHT22;51603;49.300;8.880;2022-10-14T16:07:38;15.10;99.90
65036;DHT22;51603;49.300;8.880;2022-10-14T16:10:05;15.10;99.90
65036;DHT22;51603;49.300;8.880;2022-10-14T16:12:32;15.10;99.90
65036;DHT22;51603;49.300;8.880;2022-10-14T16:14:57;15.10;99.90
65036;DHT22;51603;49.300;8.880;2022-10-14T16:17:23;15.10;99.90
65036;DHT22;51603;49.300;8.880;2022-10-14T16:19:49;15.10;99.90
65036;DHT22;51603;49.300;8.880;2022-10-14T16:22:14;15.00;99.90
65036;DHT22;51603;49.300;8.880;2022-10-14T16:24:40;15.10;99.90
65036;DHT22;51603;49.300;8.880;2022-10-14T16:27:05;15.00;99.90
65036;DHT22;51603;49.300;8.880;2022-10-14T16:29:31;15.00;99.90
65036;DHT22;51603;49.300;8.880;2022-10-14T16:31:56;15.00;99.90
65036;DHT22;51603;49.300;8.880;2022-10-14T16:34:22;15.00;99.90
65036;DHT22;51603;49.300;8.880;2022-10-14T16:36:49;15.00;99.90
65036;DHT22;51603;49.300;8.880;2022-10-14T16:39:16;15.00;99.90
65036;DHT22;51603;49.300;8.880;2022-10-14T16:41:41;15.00;99.90
65036;DHT22;51603;49.300;8.880;2022-10-14T16:44:07;15.00;99.90
65036;DHT22;51603;49.300;8.880;2022-10-14T16:46:33;14.90;99.90
65036;DHT22;51603;49.300;8.880;2022-10-14T16:49:17;14.90;99.90
65036;DHT22;51603;49.300;8.880;2022-10-14T16:51:43;14.90;99.90
65036;DHT22;51603;49.300;8.880;2022-10-14T16:54:10;15.00;99.90
65036;DHT22;51603;49.300;8.880;2022-10-14T16:56:35;15.00;99.90
65036;DHT22;51603;49.300;8.880;2022-10-14T16:59:21;15.00;99.90
65036;DHT22;51603;49.300;8.880;2022-10-14T17:01:48;15.10;99.90
65036;DHT22;51603;49.300;8.880;2022-10-14T17:04:14;15.00;99.90
65036;DHT22;51603;49.300;8.880;2022-10-14T17:06:40;15.00;99.90
65036;DHT22;51603;49.300;8.880;2022-10-14T17:09:06;15.00;99.90
65036;DHT22;51603;49.300;8.880;2022-10-14T17:11:32;14.90;99.90
65036;DHT22;51603;49.300;8.880;2022-10-14T17:13:59;15.00;99.90
65036;DHT22;51603;49.300;8.880;2022-10-14T17:16:25;15.00;99.90
65036;DHT22;51603;49.300;8.880;2022-10-14T17:18:53;14.90;99.90
65036;DHT22;51603;49.300;8.880;2022-10-14T17:21:20;14.90;99.90
65036;DHT22;51603;49.300;8.880;2022-10-14T17:23:45;14.90;99.90
65036;DHT22;51603;49.300;8.880;2022-10-14T17:26:16;14.90;99.90
65036;DHT22;51603;49.300;8.880;2022-10-14T17:28:45;14.90;99.90
65036;DHT22;51603;49.300;8.880;2022-10-14T17:31:15;14.90;99.90
65036;DHT22;51603;49.300;8.880;2022-10-14T17:33:43;14.80;99.90
65036;DHT22;51603;49.300;8.880;2022-10-14T17:38:46;14.80;99.90
65036;DHT22;51603;49.300;8.880;2022-10-14T17:41:13;14.90;99.90
65036;DHT22;51603;49.300;8.880;2022-10-14T17:43:39;14.90;99.90
65036;DHT22;51603;49.300;8.880;2022-10-14T17:46:10;14.80;99.90
65036;DHT22;51603;49.300;8.880;2022-10-14T17:48:36;14.80;99.90